Lickingville, Pennsylvania
Current Conditions -  °F | °C
As of 8:15 AM on Friday 24 Oct 2014 (Local Time) from KFKL Reporting Station
Overcast Overcast  
Wind Chill: 41°   Ceiling: 200
Heat Index: 41°   Visibility: 0mi
Dew Point: 39°   Wind: 3mph
Humidity: 93%   Direction: 230°SW
Pressure: 30.08"   Gusts: NA
Location:  41.38°N, 79.37°W
Report Text: KFKL 241215Z 23003KT M1/4SM OVC002 05/04 A3008 RMK AO1
Loading
Personal Weather Stations






























Interactive Weather Map
Tropical Storm Tracking
New forecast layout! Learn more

10-Day Weather Forecast

Advertisements
Track Severe Weather on mobile